Date,TemperatureHighF,TemperatureAvgF,TemperatureLowF,DewpointHighF,DewpointAvgF,DewpointLowF,HumidityHigh,HumidityAvg,HumidityLow,PressureMaxIn,PressureMinIn,WindSpeedMaxMPH,WindSpeedAvgMPH,GustSpeedMaxMPH,PrecipitationSumIn
2013-1-1,46,42,39,44,41,38,97,96,95,30.11,29.67,4,2,7,0.03
2013-1-2,54,51,46,51,49,45,96,94,92,30.33,30.08,7,4,8,0.00
2013-1-3,53,51,50,51,49,48,94,93,93,30.55,30.32,5,3,7,0.03
2013-1-4,51,50,49,49,48,47,95,94,93,30.52,30.42,5,2,8,0.03
2013-1-5,52,51,50,51,49,48,95,94,94,30.42,30.32,8,4,13,0.05
2013-1-6,52,51,50,50,50,49,96,96,95,30.29,30.16,5,4,10,0.03
2013-1-7,52,51,50,51,50,49,97,96,96,30.14,29.98,8,6,14,0.73
2013-1-8,52,50,46,51,49,45,98,96,95,30.25,29.98,7,3,11,0.14
2013-1-9,46,42,35,41,38,32,89,84,81,30.14,29.96,4,1,6,0.03
2013-1-10,48,45,37,45,41,32,95,86,82,30.03,29.84,6,3,9,0.05
2013-1-11,50,44,36,46,40,31,93,85,80,30.01,29.63,7,4,10,0.11
2013-1-12,45,44,40,43,42,38,95,93,91,30.00,29.60,7,3,11,0.19
2013-1-13,44,39,34,38,34,28,91,82,78,30.17,30.00,4,2,6,0.00
2013-1-14,46,43,40,41,38,35,90,84,79,30.10,29.94,8,4,12,0.05
2013-1-15,45,41,36,42,38,33,91,89,85,29.96,29.60,6,3,8,0.19
2013-1-16,47,45,44,44,43,41,92,91,90,29.83,29.59,5,2,9,0.11
2013-1-17,49,46,43,46,43,40,92,89,87,29.82,29.28,12,2,21,1.08
2013-1-18,49,42,35,46,39,31,92,88,84,29.33,29.25,4,2,7,0.00
2013-1-19,42,38,36,35,32,29,81,77,74,29.53,29.28,4,2,5,0.14
2013-1-20,39,37,34,31,30,28,79,77,73,29.49,29.26,7,4,10,0.24
2013-1-21,42,36,33,34,30,25,80,77,71,29.37,29.28,3,1,3,0.14
2013-1-22,41,33,30,34,12,-32,99,51,5,29.69,29.33,4,1,7,0.00
2013-1-23,38,34,30,38,13,-36,99,63,4,29.77,29.54,4,1,4,0.30
2013-1-24,43,39,36,43,39,35,99,99,99,29.93,29.78,8,3,11,0.08
2013-1-25,50,45,42,48,44,37,99,97,64,29.79,29.34,9,6,15,1.33
2013-1-26,51,46,40,51,46,39,99,99,98,29.73,29.12,13,6,20,0.46
2013-1-27,47,40,35,47,38,23,99,90,61,29.57,29.12,12,6,21,0.24
2013-1-28,50,46,37,49,41,21,99,86,50,29.60,29.26,14,9,26,0.43
2013-1-29,53,49,46,53,49,46,99,99,99,29.49,29.27,10,5,21,0.32
2013-1-30,50,46,44,50,46,44,99,99,99,29.90,29.45,11,3,14,0.00
2013-1-31,49,45,42,48,45,42,99,99,99,29.89,29.67,10,6,18,0.11
2013-2-1,46,42,37,45,42,37,99,99,99,29.94,29.62,9,4,14,0.05
2013-2-2,50,42,38,49,42,38,99,99,95,30.37,29.96,6,4,7,0.00
2013-2-3,50,50,50,50,50,50,99,99,99,30.04,30.03,6,5,8,0.00
2013-2-4,51,46,38,50,45,38,99,97,91,30.13,29.87,10,6,27,0.08
2013-2-5,44,39,34,44,38,34,99,99,99,29.88,29.69,12,7,17,0.54
2013-2-6,46,41,35,44,40,34,99,98,91,30.31,29.91,10,6,14,0.00
2013-2-7,48,41,34,47,40,34,99,98,92,30.30,30.11,14,5,14,0.05
2013-2-8,51,43,36,49,42,36,99,97,91,30.32,30.22,7,3,11,0.00
2013-2-9,48,43,36,48,43,36,99,99,99,30.21,29.61,4,1,6,0.27
2013-2-10,48,43,38,48,42,38,99,99,99,29.58,29.33,7,4,9,0.11
2013-2-11,44,42,39,43,41,38,99,99,99,29.78,29.32,10,5,15,0.24
2013-2-12,43,40,36,43,40,36,99,99,99,29.92,29.80,4,2,8,0.19
2013-2-13,53,48,44,52,48,43,99,99,99,29.89,29.71,9,4,12,0.22
2013-2-14,50,45,41,50,44,40,99,99,99,30.08,29.75,7,3,9,0.03
2013-2-15,49,43,35,49,42,35,99,99,99,30.09,30.02,5,2,8,0.08
2013-2-16,50,48,47,50,48,47,99,99,99,30.02,29.89,9,6,13,0.11
2013-2-17,48,47,46,48,47,45,99,98,97,29.88,29.77,11,9,17,0.00
2013-2-18,48,47,46,46,45,44,97,95,93,29.94,29.77,9,7,18,0.03
2013-2-19,50,47,43,48,45,42,95,93,92,29.99,29.91,7,4,11,0.00
2013-2-20,50,46,42,48,44,40,93,92,91,29.96,29.90,11,7,25,0.00
2013-2-21,46,43,39,43,40,35,92,88,84,29.96,29.88,12,10,20,0.00
2013-2-22,39,38,36,35,34,32,87,85,82,30.12,29.94,8,6,12,0.00
2013-2-23,41,37,32,36,33,31,93,88,80,30.22,30.11,4,2,5,0.00
2013-2-24,44,36,29,41,34,27,94,91,86,30.37,30.19,4,1,6,0.00
2013-2-25,45,38,29,41,35,28,93,90,83,30.50,30.35,5,1,8,0.00
2013-2-26,45,40,32,41,37,30,92,91,88,30.53,30.42,5,2,6,0.00
2013-2-27,45,41,36,42,39,34,91,91,90,30.55,30.47,4,2,6,0.00
2013-2-28,46,40,35,42,37,33,91,89,86,30.46,30.38,4,3,7,0.00
2013-3-1,46,41,34,42,38,31,90,88,85,30.38,30.33,5,2,10,0.00
2013-3-2,45,42,40,41,39,37,90,88,84,30.34,30.20,4,2,6,0.00
2013-3-3,43,41,41,40,38,38,90,89,89,30.18,29.89,5,3,7,0.00
2013-3-4,46,44,42,43,41,38,89,89,87,29.88,29.62,6,4,12,0.00
2013-3-5,48,44,41,45,41,38,89,88,86,29.60,29.41,7,4,9,0.11
2013-3-6,49,48,46,46,45,42,92,90,86,29.40,29.30,6,4,9,0.11
2013-3-7,50,49,48,48,47,46,95,94,92,29.29,29.11,8,6,12,0.38
2013-3-8,53,50,49,50,48,46,95,92,88,29.33,29.08,8,5,12,0.14
2013-3-9,50,49,46,48,46,44,95,89,85,29.48,29.26,8,6,16,0.24
2013-3-10,48,41,33,44,38,30,89,88,87,29.73,29.46,10,8,16,0.89
2013-3-11,36,33,30,32,29,26,87,86,83,29.97,29.73,10,7,17,0.00
2013-3-12,42,35,28,34,30,24,86,81,69,30.11,29.95,9,4,11,0.00
2013-3-13,52,43,35,45,37,29,84,80,77,30.06,29.96,9,3,12,0.00
2013-3-17,48,43,37,40,34,26,75,70,65,29.25,29.19,7,2,12,0.00
2013-3-18,49,41,35,44,32,25,82,71,60,29.42,29.17,6,3,9,0.03
2013-3-19,45,40,36,40,32,25,82,74,64,29.54,29.42,5,2,8,0.00
2013-3-20,50,41,31,45,33,22,81,74,63,29.84,29.56,6,2,13,0.00
2013-3-21,50,46,43,39,35,29,79,65,55,29.70,29.25,12,10,20,1.19
2013-3-22,52,49,44,42,37,31,72,65,53,29.49,29.15,13,8,29,0.03
2013-3-23,47,45,42,38,34,29,71,64,56,29.71,29.48,10,7,16,0.05
2013-3-24,42,39,37,30,27,24,63,60,58,29.88,29.71,8,6,11,0.00
2013-3-25,39,38,36,33,30,24,82,73,59,29.96,29.86,7,5,15,0.00
2013-3-26,40,35,32,34,27,22,81,71,64,29.96,29.91,7,4,9,0.03
2013-3-27,43,36,30,36,29,22,81,76,69,29.92,29.86,6,2,8,0.00
2013-3-28,41,37,31,35,30,23,81,76,68,29.91,29.71,9,4,11,0.00
2013-3-29,43,41,39,37,35,34,81,80,78,29.71,29.65,10,7,17,0.00
2013-3-30,44,41,39,37,35,34,81,79,75,29.87,29.71,7,5,17,0.00
2013-3-31,43,41,40,37,30,25,81,65,55,29.75,29.63,10,8,23,0.76
2013-4-1,41,40,40,35,30,26,80,67,56,29.75,29.60,9,8,21,0.00
2013-4-2,46,42,39,40,36,32,80,78,74,30.00,29.75,9,6,15,0.00
2013-4-3,47,43,36,40,35,28,80,74,62,30.11,29.97,8,5,15,0.00
2013-4-7,45,43,41,39,31,28,81,64,57,29.84,29.60,12,7,16,0.22
2013-4-8,46,43,42,28,23,14,58,45,30,29.58,29.26,11,8,17,0.49
2013-4-9,44,43,41,24,23,22,49,45,40,29.48,29.25,8,5,12,0.03
2013-4-11,54,50,43,22,19,16,36,29,25,29.31,29.26,8,4,10,0.32
2013-4-12,56,47,41,23,11,-10,44,27,7,29.69,29.31,7,3,10,0.00
2013-4-13,52,46,35,20,14,-2,31,26,18,29.67,29.36,10,6,13,0.32
2013-4-14,55,51,48,21,19,17,32,28,23,29.64,29.40,12,9,20,0.27
2013-4-15,56,51,48,20,18,14,30,27,21,29.82,29.52,12,8,15,0.27
2013-4-16,59,51,46,18,11,4,29,21,11,29.93,29.56,10,6,16,0.00
2013-4-17,53,50,47,17,13,8,24,22,20,29.80,29.35,16,11,20,0.38
2013-4-18,54,48,44,14,5,-7,25,18,8,30.20,29.58,12,6,19,0.08
2013-4-19,56,48,40,25,3,-9,30,16,7,30.44,30.21,5,2,9,0.05
2013-4-20,55,47,37,16,3,-12,35,19,6,30.43,30.22,7,3,11,0.03
2013-4-21,55,50,46,5,-3,-25,17,12,3,30.18,30.03,7,5,17,0.16
2013-4-22,66,55,48,2,-17,-76,13,8,1,30.04,29.89,8,4,12,0.00
2013-4-23,67,57,49,2,-19,-76,13,7,1,30.19,30.03,6,3,11,0.00
2013-4-24,64,56,51,4,-4,-19,13,9,3,30.21,30.10,6,3,14,0.05
2013-4-25,58,52,44,40,3,-43,59,19,1,30.24,30.09,7,4,13,0.03
2013-4-26,53,45,39,40,2,-24,63,22,4,30.23,30.16,9,5,12,0.00
2013-4-27,56,48,38,43,19,-10,63,38,10,30.21,30.11,6,4,11,0.00
2013-4-28,54,49,45,41,14,-12,61,31,6,30.17,29.97,8,4,15,0.03
2013-4-29,56,49,41,43,25,0,64,43,17,30.26,30.02,8,4,14,0.00
2013-4-30,57,48,39,42,16,-11,60,31,8,30.34,30.26,5,3,9,0.00
2013-5-1,60,50,38,42,15,-11,56,29,7,30.30,30.24,4,2,9,0.00
2013-5-2,60,51,38,40,14,-7,51,25,9,30.27,30.18,6,2,9,0.00
2013-5-3,59,54,50,20,3,-6,22,12,8,30.18,29.93,9,6,19,0.14
2013-5-4,60,53,45,6,-4,-15,18,10,5,30.09,29.87,8,5,16,0.00
2013-5-5,60,55,52,3,-5,-13,11,8,5,30.13,30.04,8,5,13,0.00
2013-5-6,62,55,52,7,-4,-12,14,9,5,30.09,29.95,6,2,11,0.00
2013-5-7,54,52,51,8,-1,-6,17,11,8,29.97,29.46,9,5,15,0.70
2013-5-8,53,51,46,16,7,-2,24,17,11,29.50,29.31,12,7,28,0.38
2013-5-9,56,51,45,17,5,-5,29,16,8,29.76,29.24,12,5,23,0.38
2013-5-10,58,51,44,47,12,-3,68,26,9,29.89,29.74,10,6,17,0.08
2013-5-11,54,50,46,44,18,0,71,33,13,30.07,29.76,12,6,12,0.05
2013-5-12,60,54,48,36,20,1,51,30,10,30.03,29.93,8,5,16,0.00
2013-5-13,55,50,46,45,33,12,70,54,22,29.95,29.83,11,5,17,0.00
2013-5-14,53,47,44,19,7,0,34,20,13,29.79,29.41,10,4,12,0.14
2013-5-15,54,49,43,43,24,4,65,40,19,29.62,29.48,9,5,18,0.00
2013-5-16,56,48,43,26,6,0,35,19,12,29.58,29.45,5,2,8,0.14
2013-5-17,58,50,41,48,26,4,70,44,14,29.91,29.57,5,2,9,0.00
2013-5-18,60,51,43,50,32,8,71,51,21,29.93,29.78,7,4,15,0.00
2013-5-19,59,54,49,41,22,6,51,31,16,30.05,29.77,4,1,6,0.00
2013-5-20,59,55,51,17,7,2,23,15,10,30.15,30.03,6,4,14,0.00
2013-5-21,66,57,51,47,22,5,51,27,14,30.22,30.12,7,3,9,0.00
2013-5-22,62,55,49,49,33,14,64,46,23,30.31,30.20,6,2,7,0.00
2013-5-23,59,52,46,47,36,21,66,55,36,30.25,30.17,8,6,14,0.00
2013-5-24,60,51,44,47,36,20,66,56,37,30.19,30.09,7,5,12,0.00
2013-5-25,64,55,44,50,33,17,63,45,26,30.22,30.15,6,2,8,0.00
2013-5-26,63,56,51,50,29,16,62,37,23,30.17,29.81,7,4,13,0.00
2013-5-27,57,52,46,26,20,14,40,29,21,29.75,29.52,8,4,15,0.43
2013-5-28,59,51,44,47,29,22,65,42,31,29.73,29.55,8,5,14,0.03
2013-5-29,69,58,48,56,40,22,66,53,35,30.04,29.71,8,5,12,0.00
2013-5-30,66,59,51,53,45,30,67,60,43,30.19,30.04,8,5,11,0.00
2013-5-31,66,59,50,54,40,20,66,52,28,30.33,30.18,7,4,11,0.00
2013-6-1,64,55,45,52,39,23,68,55,34,30.41,30.30,6,3,9,0.00
2013-6-2,69,60,49,58,44,30,68,58,36,30.45,30.38,5,2,9,0.00
2013-6-3,66,61,53,54,44,32,68,55,39,30.49,30.40,5,2,8,0.00
2013-6-4,66,58,48,53,41,27,66,53,40,30.40,30.21,5,2,9,0.00
2013-6-5,64,57,46,52,40,27,70,53,36,30.19,30.10,6,3,8,0.00
2013-6-6,67,60,51,56,43,30,70,55,40,30.20,30.07,6,3,9,0.00
2013-6-7,70,61,49,59,46,31,70,57,40,30.25,30.18,6,2,9,0.00
2013-6-8,71,63,51,60,48,33,71,58,44,30.22,30.08,5,1,7,0.00
2013-6-9,68,60,50,58,46,33,72,60,47,30.07,29.91,6,3,12,0.00
2013-6-10,57,56,55,46,41,38,66,58,52,29.91,29.68,9,6,14,0.54
2013-6-11,63,58,55,47,45,42,69,60,51,29.74,29.57,8,4,10,0.41
2013-6-12,59,56,53,48,44,39,74,64,52,29.73,29.54,6,3,12,0.22
2013-6-13,64,57,51,54,45,39,71,64,53,29.95,29.58,8,5,17,0.00
2013-6-14,57,54,50,44,41,38,69,60,55,29.90,29.48,10,5,23,0.73
2013-6-15,59,53,46,42,38,33,76,58,42,29.82,29.59,9,5,15,0.16
2013-6-16,55,53,51,40,36,32,58,51,46,29.81,29.68,8,4,13,1.05
2013-6-17,62,57,53,42,40,38,61,54,41,29.99,29.77,6,3,11,0.27
2013-6-18,70,60,52,51,43,33,71,54,37,30.04,29.94,4,2,7,0.00
2013-6-19,55,52,50,34,32,31,53,47,41,30.06,30.04,3,1,5,0.00
2013-6-20,60,60,60,42,42,42,50,50,50,29.87,29.87,3,3,6,0.00
2013-6-21,66,60,55,51,41,29,60,50,35,29.91,29.65,7,5,11,0.05
2013-6-22,63,57,53,47,36,29,58,46,35,29.80,29.55,8,6,12,0.03
2013-6-23,62,56,51,48,40,31,62,55,45,30.25,29.81,9,7,15,0.03
2013-6-24,63,57,50,49,41,33,61,56,47,30.29,30.24,4,2,10,0.00
2013-6-25,66,60,55,44,35,29,44,39,34,30.44,30.26,4,1,5,0.03
2013-6-26,69,61,52,54,42,29,61,52,39,30.52,30.43,4,2,7,0.00
2013-6-27,75,63,49,59,45,28,60,52,39,30.48,30.34,6,2,7,0.00
2013-6-28,72,64,56,57,47,36,59,55,45,30.32,30.20,7,4,11,0.00
2013-6-29,77,68,60,60,51,40,59,54,45,30.34,30.24,5,3,11,0.00
2013-6-30,68,61,56,52,45,37,62,56,44,30.29,30.09,8,5,11,0.00
2013-7-1,69,60,52,54,45,36,61,58,50,30.10,29.93,6,3,12,0.00
2013-7-2,65,59,52,44,41,34,58,51,42,29.91,29.59,7,4,14,0.14
2013-7-3,68,62,56,54,45,40,59,55,47,29.95,29.66,6,4,14,0.00
2013-7-4,69,62,57,54,47,40,63,56,49,30.29,29.90,7,4,13,0.03
2013-7-5,68,61,51,54,47,38,63,61,55,30.40,30.29,5,2,8,0.00
2013-7-6,72,65,58,57,49,43,61,57,51,30.46,30.34,4,2,14,0.00
2013-7-7,76,68,59,59,50,42,59,54,48,30.56,30.46,6,2,8,0.00
2013-7-8,75,69,59,59,52,43,58,56,54,30.56,30.46,5,2,10,0.00
2013-7-9,77,70,60,62,54,45,60,57,49,30.47,30.34,5,2,7,0.00
2013-7-10,76,70,62,60,54,47,62,58,54,30.35,30.30,5,2,7,0.00
2013-7-11,66,64,63,51,50,48,59,59,58,30.30,30.29,0,0,0,0.00
2013-7-14,67,67,67,55,55,55,67,67,67,30.27,30.27,2,2,0,0.00
2013-7-15,76,69,62,62,57,51,69,66,64,30.32,30.26,4,3,7,0.00
2013-7-16,76,67,60,62,55,50,68,66,63,30.31,30.26,6,2,12,0.00
2013-7-17,77,70,60,64,58,48,66,65,64,30.36,30.31,3,2,5,0.00
2013-7-18,76,69,62,63,57,50,66,65,64,30.38,30.32,6,2,10,0.00
2013-7-19,77,69,58,64,57,46,66,64,62,30.33,30.21,5,2,8,0.00
2013-7-20,75,69,62,63,57,50,66,65,62,30.22,30.13,6,2,15,0.00
2013-7-21,69,66,62,57,54,49,67,65,62,30.12,29.99,5,2,10,0.00
2013-7-22,70,66,64,58,54,51,65,64,62,29.99,29.90,4,2,6,0.00
2013-7-23,66,65,62,55,53,50,73,66,63,29.89,29.83,5,2,13,0.54
2013-7-24,64,63,61,55,53,51,74,72,66,29.84,29.76,7,3,8,0.49
2013-7-25,66,62,57,50,36,25,69,41,23,29.86,29.77,6,2,13,0.51
2013-7-26,64,59,58,36,30,-4,42,36,6,29.85,29.81,2,0,7,0.03
2013-7-27,66,64,62,66,26,-76,99,57,5,29.75,29.71,5,4,9,0.22
2013-7-30,61,61,61,61,61,61,99,99,99,29.95,29.95,0,0,0,0.00
2013-7-31,66,64,59,66,64,58,99,99,99,29.89,29.72,7,4,10,0.95
2013-8-1,65,64,61,65,64,60,99,99,99,29.70,29.51,8,6,15,1.16
2013-8-2,65,61,58,65,27,-76,99,74,99,29.76,29.54,7,4,16,0.00
2013-8-3,67,61,55,67,55,-76,99,95,99,29.95,29.76,7,3,19,0.38
2013-8-4,66,61,56,65,50,-76,99,91,99,29.92,29.84,4,2,8,0.03
2013-8-5,66,61,56,64,36,-76,99,79,1,30.03,29.81,6,4,12,0.00
2013-8-6,66,61,55,66,61,55,99,99,99,30.01,29.91,5,2,9,0.00
2013-8-7,67,62,58,67,62,58,99,99,99,30.09,29.87,4,1,7,0.05
2013-8-8,66,61,55,66,55,-76,99,95,99,30.07,29.96,6,2,10,0.03
2013-8-9,67,62,56,67,55,-76,99,95,99,30.26,30.07,5,2,6,0.00
2013-8-10,70,63,58,68,53,-9,99,87,4,30.24,30.15,6,2,8,0.00
2013-8-11,67,61,57,63,47,-7,99,75,5,30.15,30.11,5,2,8,0.00
2013-8-12,67,61,55,61,45,-40,99,71,1,30.25,30.09,6,3,9,0.00
2013-8-13,68,62,58,66,44,-76,99,87,99,30.24,30.13,4,2,9,0.03
2013-8-14,68,65,63,68,65,62,99,99,99,30.13,30.06,5,3,11,0.05
2013-8-15,65,64,61,65,64,60,99,99,99,30.05,29.89,6,4,11,0.30
2013-8-16,66,60,52,66,46,-76,99,86,1,30.03,29.93,6,3,12,0.00
2013-8-17,66,63,59,66,63,59,99,99,99,29.94,29.66,7,5,12,0.19
2013-8-18,66,60,56,63,30,-76,99,72,2,29.99,29.75,6,3,15,0.00
2013-8-19,68,61,53,65,43,-25,99,78,2,30.31,30.00,5,2,9,0.00
2013-8-20,68,63,57,67,44,-76,99,86,99,30.32,30.19,6,3,11,0.00
2013-8-21,72,66,62,68,41,-76,99,67,2,30.20,30.13,6,3,16,0.00
2013-8-22,68,62,58,68,62,58,99,99,99,30.21,29.93,3,1,6,0.00
2013-8-23,67,62,56,64,35,-76,99,64,3,30.04,29.88,6,3,9,0.03
2013-8-24,66,60,54,65,17,-76,99,61,1,30.08,29.96,4,2,6,0.00
2013-8-25,67,62,57,63,37,-76,99,65,1,30.21,30.01,5,3,10,0.00
2013-8-26,66,62,56,65,44,-76,99,80,1,30.19,30.14,3,1,5,0.00
2013-8-27,71,65,60,69,41,-76,99,72,2,30.25,30.13,3,2,6,0.00
2013-8-28,70,64,58,70,36,-76,99,78,2,30.27,30.21,4,2,8,0.00
2013-8-29,73,66,60,68,45,-28,99,64,2,30.21,30.12,6,3,10,0.00
2013-8-30,72,64,57,68,52,23,99,72,26,30.31,30.07,7,3,14,0.00
2013-8-31,65,57,49,53,28,-76,99,54,6,30.51,30.31,5,2,8,0.00
2013-9-1,66,57,47,54,33,-76,99,62,2,30.50,30.40,5,2,10,0.00
2013-9-2,71,62,52,64,43,-25,99,67,2,30.42,30.36,5,2,11,0.00
2013-9-3,65,57,48,60,32,-76,99,65,8,30.36,30.23,4,1,7,0.00
2013-9-4,68,62,55,66,42,-37,99,73,1,30.21,29.97,6,2,8,0.00
2013-9-5,63,58,51,60,38,-26,99,62,3,30.04,29.98,4,2,6,0.00
2013-9-6,60,53,49,52,23,-76,99,54,8,29.99,29.90,6,3,9,0.00
2013-9-7,57,52,47,53,15,-76,99,49,2,30.00,29.95,6,3,8,0.03
2013-9-8,60,55,50,60,55,49,99,99,99,30.00,29.91,4,2,8,0.05
2013-9-9,65,58,52,64,45,-76,99,87,1,30.28,29.94,5,2,11,0.00
2013-9-10,61,56,50,56,19,-76,99,49,2,30.38,30.29,6,3,9,0.00
2013-9-11,70,62,56,62,28,-76,99,54,2,30.36,30.21,7,4,14,0.00
2013-9-12,70,65,61,68,29,-76,99,70,1,30.20,30.08,5,3,10,0.00
2013-9-13,60,56,53,58,50,-76,99,95,99,30.14,30.09,3,1,7,0.14
2013-9-14,62,55,50,61,55,50,99,99,99,30.18,30.06,3,2,5,0.00
2013-9-15,64,58,51,64,44,-13,99,74,6,30.07,29.70,10,6,15,0.03
2013-9-16,57,52,49,53,-7,-76,99,28,2,29.81,29.73,9,5,18,0.05
2013-9-17,66,59,51,64,30,-76,99,64,3,29.75,29.52,11,5,16,0.00
2013-9-18,60,54,48,56,28,-76,99,66,2,29.95,29.59,5,2,11,0.03
2013-9-19,64,58,49,61,37,-76,99,65,5,30.02,29.70,8,4,11,0.03
2013-9-20,64,57,50,60,30,-76,99,63,1,30.09,30.00,5,2,9,0.00
2013-9-21,70,63,57,70,62,57,99,99,99,30.24,30.03,4,2,7,0.00
2013-9-22,68,62,60,68,62,59,99,99,99,30.29,30.22,7,3,10,0.00
2013-9-23,61,60,59,61,60,58,99,99,99,30.21,29.97,7,5,11,0.00
2013-9-24,63,61,58,63,60,58,99,99,99,29.96,29.87,5,2,8,0.00
2013-9-25,61,60,59,61,60,59,99,99,99,29.87,29.79,3,2,6,0.05
2013-9-26,64,61,58,64,60,58,99,99,99,29.94,29.82,4,2,6,0.00
2013-9-27,62,60,58,62,60,58,99,99,99,29.91,29.77,5,3,9,0.00
2013-9-28,60,59,58,60,59,58,99,99,99,29.76,29.64,5,4,9,0.03
2013-9-29,60,58,58,59,58,57,99,99,99,29.66,29.58,4,3,10,0.16
2013-9-30,61,60,59,60,59,58,99,99,99,29.57,29.51,7,5,15,0.24
2013-10-1,62,61,59,62,55,-76,99,95,99,29.54,29.48,7,5,10,0.49
2013-10-2,61,61,61,61,61,61,99,99,99,29.51,29.47,8,7,10,0.11
2013-11-11,52,51,50,52,51,50,99,99,99,30.21,30.18,2,1,4,0.03
2013-11-12,50,45,38,48,8,-76,99,57,8,30.55,30.21,5,2,9,0.00
2013-11-13,50,44,36,50,44,36,99,99,99,30.53,30.18,8,4,20,0.11
2013-11-14,50,47,44,45,11,-76,99,42,2,30.58,30.31,7,4,15,0.00
2013-11-15,52,47,43,38,9,-6,59,24,10,30.58,30.48,3,1,8,0.00
2013-11-16,52,45,41,16,10,2,36,24,14,30.47,30.35,2,0,4,0.00
2013-11-17,54,50,44,17,12,6,25,21,16,30.32,29.97,3,1,4,0.00
2013-11-18,51,45,39,21,16,12,41,31,22,30.05,29.90,6,3,8,0.19
2013-11-19,43,40,36,16,13,9,39,33,27,30.22,30.03,5,3,11,0.00
2013-11-20,46,43,40,40,26,15,90,55,30,30.04,29.82,9,5,11,0.05
2013-11-21,43,39,36,42,37,32,99,90,79,30.08,29.88,8,4,15,0.00
2013-11-22,42,36,32,37,29,26,86,77,70,30.25,30.08,3,2,5,0.00
2013-11-23,44,37,31,40,30,24,87,76,70,30.42,30.23,3,1,4,0.00
2013-11-24,47,44,40,47,38,32,98,82,70,30.61,30.40,3,1,5,0.00
2013-11-25,47,43,36,46,41,33,98,91,85,30.71,30.60,2,1,5,0.00
2013-11-26,46,41,35,43,36,31,88,83,77,30.70,30.63,2,0,3,0.00
2013-11-27,48,44,39,46,40,34,94,87,80,30.62,30.54,3,1,3,0.00
2013-11-28,47,42,35,42,37,31,85,82,78,30.59,30.51,1,0,2,0.00
2013-11-29,50,46,44,49,44,40,99,94,83,30.53,30.41,8,3,15,0.00
2013-11-30,48,43,39,47,41,37,99,96,89,30.51,30.42,4,1,7,0.00
2013-12-1,46,45,43,43,41,40,92,88,87,30.52,30.46,2,1,4,0.00
2013-12-2,49,46,45,46,43,41,92,89,87,30.48,30.36,2,0,4,0.00
2013-12-3,50,48,46,50,46,42,99,93,88,30.38,30.26,3,1,7,0.00
2013-12-4,47,42,37,46,39,34,98,91,87,30.56,30.30,6,2,8,0.03
2013-12-5,50,45,37,50,44,34,99,96,90,30.46,30.27,8,4,14,0.00
2013-12-6,50,47,46,49,46,45,99,99,97,30.40,30.31,3,1,3,0.03
2013-12-7,49,45,40,46,43,38,96,92,90,30.29,30.14,5,2,8,0.00
2013-12-8,51,48,45,49,46,42,95,92,89,30.18,30.11,6,4,15,0.00
2013-12-9,52,51,50,51,50,48,99,97,95,30.16,30.06,7,5,17,0.00
2013-12-10,53,52,51,52,51,51,99,98,95,30.15,30.06,9,5,15,0.16
2013-12-11,52,51,50,51,50,48,96,94,93,30.12,29.94,9,6,15,0.05
2013-12-12,55,54,52,53,52,51,95,94,92,29.93,29.77,8,5,14,0.11
2013-12-13,53,47,40,51,45,38,95,93,92,30.08,29.69,9,4,16,0.14
2013-12-14,53,49,43,50,46,40,92,91,90,30.02,29.65,14,6,36,1.05
2013-12-15,53,48,39,48,44,37,93,86,83,29.93,29.65,9,5,23,0.16
2013-12-16,49,43,36,44,39,30,88,85,78,30.09,29.63,6,2,7,0.16
2013-12-17,48,40,33,26,16,-17,69,40,7,30.08,29.65,10,4,14,0.16
2013-12-18,52,48,39,33,27,23,53,44,36,29.62,28.88,9,3,17,0.62
2013-12-19,40,38,37,24,20,15,54,47,40,29.80,29.30,8,4,8,0.11
2013-12-20,50,44,37,28,23,16,44,42,38,29.86,29.60,11,6,19,0.57
2013-12-21,48,45,40,25,21,15,46,39,34,29.70,29.48,8,6,14,0.70
2013-12-26,45,45,45,44,44,44,99,99,99,28.67,28.67,15,15,26,0.62
2013-12-27,44,42,38,44,42,38,99,99,99,29.18,28.65,16,9,29,0.08
2013-12-28,42,37,34,42,37,33,99,99,99,29.80,29.18,4,1,4,0.00
2013-12-29,49,41,31,49,41,31,99,99,99,29.84,29.41,10,3,12,0.78
2013-12-30,50,46,41,50,45,41,99,99,99,29.67,29.28,12,7,29,0.54
2013-12-31,45,42,40,44,42,40,99,99,99,29.30,29.22,8,5,11,0.76
2014-1-1,49,46,42,49,46,42,99,99,99,29.24,28.67,9,4,22,0.49
2014-1-2,49,45,41,49,45,41,99,99,99,29.24,28.88,10,5,14,0.30